Oelrichs, SD (57763)

7:17 AM MDT on July 30, 2016 (GMT -0600)
Smithwick | | Change Station

Elev 3284 ft 43.29 °N, 103.21 °W | Updated 13 minutes ago

Scattered Clouds
Scattered Clouds
69.3 °F
Feels Like 69.3 °F
N
3.7
Wind Variable Wind from South

Today
High -- | Low -- °F
--% Chance of Precip.
Yesterday
High -- | Low -- °F
Precip. -- in
Pressure 29.92 in
Visibility 10.0 miles
Clouds Few 8000 ft
Scattered Clouds 9500 ft
Dew Point 60 °F
Humidity 71%
Rainfall 0.00 in
Snow Depth Not available.
5:41 AM 8:16 PM
Waning Crescent, 13% visible
METAR KCDR 301253Z AUTO 00000KT 10SM FEW080 SCT095 17/14 A2996 RMK AO2 SLP130 T01670139
Pressure 29.92 in
Visibility 10.0 miles
Clouds Few 8000 ft
Scattered Clouds 9500 ft
Dew Point 60 °F
Humidity 71%
Rainfall 0.00 in
Snow Depth Not available.
5:41 AM 8:16 PM
Waning Crescent, 13% visible
METAR KCDR 301253Z AUTO 00000KT 10SM FEW080 SCT095 17/14 A2996 RMK AO2 SLP130 T01670139

10-Day Weather Forecast

Almanac

Astronomy

Jul. 30, 2016 Rise Set
Actual Time
Civil Twilight
Nautical Twilight
Astronomical Twilight
Moon
Length of Visible Light
Length of Day
Tomorrow will be .
, % of the Moon is Illuminated

Today's Extremes

State Highs State Lows

Community

WunderPhotos

Upload Photos

1,928,555 photos uploaded!

WunderBlog® & News

Nearby

Air Quality

  Air Quality AQ Index Pollutant
Not available.

Snow Depth

Station Depth Elevation

Earthquake Activity

City Distance Mag. Time & Date
Minimum magnitude displayed is 2.5.

Coastal Water Temperatures

Place Temperature

Stations

Nearby Weather Stations

Station Location Temp. Windchill Dew Point Humidity Wind Precip. Elev Updated Type
                   

Watches & Warnings

There are currently no watches in effect.